Historique des mesures à Cassis (13260), France
Quotidien Résumé Juillet 26, 2017 Unités:  Métrique    US   Métrique/US
« Précédent (Jour)
Suivant (Jour) »
Quotidien Hebdomadaire Mensuel Annuel Période au choix
  Maximum: Minimum: Moyenne:
Température: TemperatureC °C 19.3 °C 22.9 °C
Point de rosée: DewpointC °C 9.2 °C 10.2 °C
Humidité: Humidity % 31 % 43 %
Vitesse du vent: 0 km/h 0 km/h 29 km/h
Rafales: 0 km/h - -
Vent:- - SSE
Pression: PressurehPa hPa 1003.3 hPa -
Précipitations: 0.0 mm    
Historical Graphs
 
 
Mesures pour : Juillet 26, 2017
Heure Temperature Point de rosée Pression Vent Vitesse du vent Rafales Humidité Pluie (par heure) Conditions
TemperatureC °C DewpointC °C PressurehPa hPa Calm     Humidity % HourlyPrecipMM mm SoftwareType W/m2
00:11 21.6 °C 10.7 °C 1004.6 hPa North 23.8 km/h 30.7 km/h 50 % 0.0 mm open2300-1.11 W/m2
01:11 21.1 °C 10.8 °C 1005.0 hPa North 27.2 km/h 34.1 km/h 52 % 0.0 mm open2300-1.11 W/m2
02:11 20.7 °C 11.0 °C 1004.3 hPa North 37 km/h 65.5 km/h 54 % 0.0 mm open2300-1.11 W/m2
03:11 20.4 °C 11.3 °C 1003.9 hPa NW 56.2 km/h 56.2 km/h 56 % 0.0 mm open2300-1.11 W/m2
04:11 19.8 °C 11.8 °C 1003.9 hPa North 52.8 km/h 81.6 km/h 60 % 0.0 mm open2300-1.11 W/m2
05:11 19.6 °C 11.7 °C 1003.9 hPa NNW 40.7 km/h 49.2 km/h 60 % 0.0 mm open2300-1.11 W/m2
06:11 19.5 °C 11.3 °C 1003.3 hPa NNE 39.4 km/h 55.7 km/h 59 % 0.0 mm open2300-1.11 W/m2
07:11 19.3 °C 11.1 °C 1005.0 hPa WNW 15.6 km/h 39.4 km/h 59 % 0.0 mm open2300-1.11 W/m2
08:11 21.0 °C 11.3 °C 1005.3 hPa NNE 1.8 km/h 10.3 km/h 54 % 0.0 mm open2300-1.11 W/m2
09:11 21.4 °C 11.1 °C 1005.6 hPa Calm   15.6 km/h 52 % 0.0 mm open2300-1.11 W/m2
10:11 22.5 °C 11.8 °C 1005.3 hPa NW 17.9 km/h 27.2 km/h 51 % 0.0 mm open2300-1.11 W/m2
11:11 26.2 °C 12.3 °C 1005.3 hPa NNE 6.4 km/h 9.8 km/h 42 % 0.0 mm open2300-1.11 W/m2
12:11 26.2 °C 10.3 °C 1005.0 hPa NW 57.9 km/h 57.9 km/h 37 % 0.0 mm open2300-1.11 W/m2
14:11 27.8 °C 10.4 °C 1003.9 hPa NW 27.2 km/h 27.2 km/h 34 % 0.0 mm open2300-1.11 W/m2
15:11 28.3 °C 10.8 °C 1003.9 hPa NNW 47.3 km/h 47.3 km/h 34 % 0.0 mm open2300-1.11 W/m2
16:11 28.3 °C 10.4 °C 1003.9 hPa NW 39.4 km/h 59.1 km/h 33 % 0.0 mm open2300-1.11 W/m2
17:11 28.3 °C 9.5 °C 1003.3 hPa NNE 17.4 km/h 54.9 km/h 31 % 0.0 mm open2300-1.11 W/m2
18:11 26.9 °C 9.2 °C 1003.3 hPa North 48.1 km/h 48.1 km/h 33 % 0.0 mm open2300-1.11 W/m2
19:11 27.4 °C 9.2 °C 1003.3 hPa North 20.3 km/h 39.9 km/h 32 % 0.0 mm open2300-1.11 W/m2
20:11 27.0 °C 9.7 °C 1003.6 hPa NW 48.6 km/h 48.6 km/h 34 % 0.0 mm open2300-1.11 W/m2
21:11 26.3 °C 9.9 °C 1004.3 hPa NNE 18.7 km/h 25.4 km/h 36 % 0.0 mm open2300-1.11 W/m2
22:11 25.5 °C 10.1 °C 1004.6 hPa NW 28.5 km/h 53.9 km/h 38 % 0.0 mm open2300-1.11 W/m2
23:11 25.0 °C 10.1 °C 1005.0 hPa North 22.5 km/h 39.9 km/h 39 % 0.0 mm open2300-1.11 W/m2
Observations météo à CASSIS
WU-History script by Weather Underground - 1 mb